Мари-Турек

Карта отелей и гостиниц, располагающихся рядом с аэропортом Мари-Турек :

Мари-Турек Марий Эл 56° 46' 50.9988" N, 49° 38' 22.6788" E
Код аэродрома ИКАО
HA2V
Код аэродрома RU
ХА2Ж
Координаты
N56.78083° E049.63963°
Превышение над уровнем моря
125
Основная полоса
Курс магнитный
Длина основной ВПП
Ширина основной ВПП
Покрытие основной ВПП
Освещение ВПП
Тип: 
Вертодром
Класс аэродрома: 
Принадлежность: 
ГА
Статус: 
Недействующий
Сайт: 
E-mail аэродрома: 
Страна: 
Россия
Регион: 
Марий Эл
Город: 
Дополнительная информация: 
XXXX (FA VT) [MARIY-EL] GR +12.7 (KOSM.)

Найти трансфер

С помощью этой формы Вы можете найти трансфер из аэропорта Мари-Турек в город, аэропорт или вокзал:

Карта места

Javascript is required to view this map.

Погода в аэропортах:

Авиационная погода в аэропорту Международный

Регион: 
Погода METAR: 
UKLL 170530Z 00000MPS 9999 -SN OVC028 M08/M09 Q1012 R31/450542 NOSIG
Время наблюдения
2021-01-17T05:30:00Z
Температура C
-8.0
Точка росы
-9.0
Направление ветра
0
Скорость ветра (узлы)
0
Метео видимость
6.21
Явления погоды
-SN
Условия полета
MVFR
Аэропорт подробнее: 

Авиационная погода в Алматы

Регион: 
Погода METAR: 
UAAA 170530Z 34002MPS 2300 FU NSC M04/M10 Q1019 R05L/3///50 R05R/3///45 NOSIG
Время наблюдения
2021-01-17T05:30:00Z
Температура C
-4.0
Точка росы
-10.0
Направление ветра
340
Скорость ветра (узлы)
4
Метео видимость
1.43
Явления погоды
FU
Условия полета
IFR
Аэропорт подробнее: 

Авиационная погода в Астрахани

Регион: 
Погода METAR: 
URWA 170530Z 07003MPS 3300 BR OVC003 M04/M05 Q1014 R27/010070 NOSIG RMK OBST OBSC QFE762/1017
Время наблюдения
2021-01-17T05:30:00Z
Температура C
-4.0
Точка росы
-5.0
Направление ветра
70
Скорость ветра (узлы)
6
Метео видимость
2.05
Явления погоды
BR
Условия полета
LIFR
Аэропорт подробнее: 

Авиационная погода в Пулково

Регион: 
Погода METAR: 
ULLI 170530Z 24002MPS 190V270 9999 -SN BKN008 M10/M12 Q1016 R28L/490540 NOSIG
Время наблюдения
2021-01-17T05:30:00Z
Температура C
-10.0
Точка росы
-12.0
Направление ветра
240
Скорость ветра (узлы)
4
Метео видимость
6.21
Явления погоды
-SN
Условия полета
IFR
Аэропорт подробнее: